Time;durP1;ratioP1;P1;durP2;ratioP2;P2;SDS_P1;SDS_P2;PMS_P1;PMS_P2;Temp;Humidity;BMP_temperature;BMP_pressure;BME280_temperature;BME280_humidity;BME280_pressure;Samples;Min_cycle;Max_cycle;Signal;HPM_P1;HPM_P2
2022/05/21 00:00:13;;;;;;;5.60;3.77;;;18.60;78.30;;;;;;4957404;28;20458;-76
2022/05/21 00:02:40;;;;;;;7.33;4.30;;;18.60;77.70;;;;;;4955736;28;20540;-75
2022/05/21 00:05:08;;;;;;;5.43;4.00;;;18.50;76.80;;;;;;4954389;29;20436;-76
2022/05/21 00:07:34;;;;;;;7.03;4.90;;;18.40;77.00;;;;;;4954925;28;20424;-76
2022/05/21 00:10:02;;;;;;;6.53;4.03;;;18.40;77.60;;;;;;4954515;28;20506;-75
2022/05/21 00:12:28;;;;;;;8.53;4.40;;;18.30;78.20;;;;;;4954257;29;20568;-75
2022/05/21 00:14:57;;;;;;;5.73;4.13;;;18.30;78.70;;;;;;4954819;28;20557;-76
2022/05/21 00:17:24;;;;;;;4.93;4.43;;;18.20;77.70;;;;;;4955813;28;20499;-75
2022/05/21 00:19:50;;;;;;;4.83;4.43;;;18.20;77.50;;;;;;4954530;28;20435;-77
2022/05/21 00:22:17;;;;;;;4.80;4.40;;;18.10;77.90;;;;;;4955500;28;20460;-75
2022/05/21 00:24:44;;;;;;;4.67;4.27;;;18.10;77.70;;;;;;4956909;29;20478;-76
2022/05/21 00:27:11;;;;;;;4.97;4.47;;;18.00;76.60;;;;;;4955966;28;20461;-77
2022/05/21 00:29:38;;;;;;;5.83;4.53;;;18.00;76.70;;;;;;4958294;29;20516;-77
2022/05/21 00:32:07;;;;;;;5.30;4.70;;;17.90;76.60;;;;;;4956567;28;20552;-77
2022/05/21 00:34:34;;;;;;;7.63;4.40;;;17.80;76.40;;;;;;4954340;28;20556;-76
2022/05/21 00:37:02;;;;;;;4.93;3.80;;;17.70;76.30;;;;;;4953953;29;20431;-76
2022/05/21 00:39:29;;;;;;;5.53;3.63;;;17.60;76.80;;;;;;4953814;29;20508;-77
2022/05/21 00:41:56;;;;;;;5.13;4.30;;;17.50;77.60;;;;;;4953634;28;20464;-76
2022/05/21 00:44:23;;;;;;;4.40;4.00;;;17.40;78.20;;;;;;4955579;28;20460;-76
2022/05/21 00:46:50;;;;;;;5.70;4.20;;;17.30;78.60;;;;;;4957408;28;20568;-77
2022/05/21 00:49:21;;;;;;;4.67;4.27;;;17.30;78.10;;;;;;4964844;28;20453;-77
2022/05/21 00:51:51;;;;;;;5.03;4.60;;;17.20;77.50;;;;;;4964703;28;20472;-76
2022/05/21 00:54:21;;;;;;;3.93;3.63;;;17.10;77.80;;;;;;4957567;28;20536;-76
2022/05/21 00:56:53;;;;;;;7.20;4.27;;;17.00;77.90;;;;;;4957771;28;20834;-77
2022/05/21 01:02:08;;;;;;;4.47;4.07;;;16.90;77.40;;;;;;4957528;28;20469;-77
2022/05/21 01:04:37;;;;;;;4.70;4.33;;;16.90;78.20;;;;;;4956878;28;20795;-76
2022/05/21 01:07:06;;;;;;;6.33;5.00;;;16.80;78.10;;;;;;4956834;28;20464;-76
2022/05/21 01:09:35;;;;;;;5.90;4.77;;;16.70;78.10;;;;;;4955857;28;20436;-77
2022/05/21 01:12:04;;;;;;;7.00;4.90;;;16.60;78.00;;;;;;4956782;28;20872;-77
2022/05/21 01:14:31;;;;;;;6.63;3.90;;;16.60;78.50;;;;;;4956702;28;21011;-76
2022/05/21 01:17:01;;;;;;;4.87;4.47;;;16.50;77.50;;;;;;4957501;28;20932;-77
2022/05/21 01:19:28;;;;;;;6.10;5.00;;;16.40;76.40;;;;;;4958308;28;20465;-76
2022/05/21 01:21:56;;;;;;;4.43;4.03;;;16.40;76.40;;;;;;4961141;28;20458;-76
2022/05/21 01:24:24;;;;;;;6.20;4.13;;;16.40;75.70;;;;;;4965164;28;20541;-76
2022/05/21 01:26:51;;;;;;;5.10;4.70;;;16.30;74.10;;;;;;4961935;28;20519;-77
2022/05/21 01:29:22;;;;;;;4.80;4.40;;;16.30;73.40;;;;;;4967420;29;20452;-76
2022/05/21 01:31:50;;;;;;;6.50;4.47;;;16.20;73.20;;;;;;4970047;29;20919;-75
2022/05/21 01:34:18;;;;;;;4.73;4.33;;;16.20;73.20;;;;;;4965626;28;21021;-76
2022/05/21 01:36:45;;;;;;;4.67;4.17;;;16.10;73.10;;;;;;4956926;29;20462;-76
2022/05/21 01:39:12;;;;;;;4.10;3.60;;;16.00;73.00;;;;;;4956025;28;20491;-76
2022/05/21 01:41:44;;;;;;;4.83;3.77;;;16.00;73.00;;;;;;4956903;28;20435;-75
2022/05/21 01:46:55;;;;;;;5.37;4.57;;;15.90;72.90;;;;;;4956705;28;20408;-76
2022/05/21 01:49:22;;;;;;;5.10;4.40;;;15.90;72.80;;;;;;4956624;28;20443;-76
2022/05/21 01:51:49;;;;;;;4.47;3.93;;;16.00;73.10;;;;;;4956335;28;20464;-76
2022/05/21 01:54:15;;;;;;;4.10;3.80;;;16.00;72.50;;;;;;4957176;28;20873;-76
2022/05/21 01:56:44;;;;;;;5.83;4.10;;;15.90;72.50;;;;;;4956344;28;20431;-77
2022/05/21 01:59:11;;;;;;;7.30;4.63;;;15.90;73.00;;;;;;4957922;28;20485;-75
2022/05/21 02:01:38;;;;;;;4.73;4.33;;;15.90;73.00;;;;;;4956170;28;20439;-76
2022/05/21 02:04:05;;;;;;;8.87;4.63;;;15.80;72.90;;;;;;4956605;28;20444;-76
2022/05/21 02:06:32;;;;;;;5.80;4.50;;;15.80;71.90;;;;;;4956402;28;20933;-76
2022/05/21 02:08:59;;;;;;;4.70;4.00;;;15.70;71.40;;;;;;4956553;28;20612;-76
2022/05/21 02:11:27;;;;;;;7.27;4.73;;;15.70;72.70;;;;;;4956801;29;20472;-76
2022/05/21 02:13:55;;;;;;;4.70;4.37;;;15.60;71.30;;;;;;4956499;28;20471;-76
2022/05/21 02:16:22;;;;;;;6.03;4.73;;;15.60;70.40;;;;;;4955959;28;20477;-76
2022/05/21 02:18:49;;;;;;;4.20;3.80;;;15.40;69.30;;;;;;4956159;28;20439;-76
2022/05/21 02:21:17;;;;;;;4.53;4.13;;;15.40;69.70;;;;;;4955926;28;20436;-77
2022/05/21 02:23:44;;;;;;;6.03;4.40;;;15.30;68.50;;;;;;4956001;28;20485;-76
2022/05/21 02:26:11;;;;;;;5.00;3.77;;;15.20;67.20;;;;;;4955869;28;20460;-76
2022/05/21 02:28:38;;;;;;;4.35;3.88;;;15.20;65.40;;;;;;4957018;28;20457;-76
2022/05/21 02:31:06;;;;;;;4.70;3.90;;;15.10;63.30;;;;;;4956715;28;20234;-76
2022/05/21 02:33:33;;;;;;;3.60;3.30;;;15.00;63.20;;;;;;4957923;28;20245;-76
2022/05/21 02:36:00;;;;;;;4.53;3.00;;;15.00;63.20;;;;;;4956035;28;20526;-76
2022/05/21 02:41:12;;;;;;;4.13;3.72;;;15.00;63.20;;;;;;4956609;28;20248;-78
2022/05/21 02:43:52;;;;;;;6.43;4.77;;;15.00;63.20;;;;;;4961277;28;20233;-77
2022/05/21 02:46:20;;;;;;;5.82;5.32;;;15.00;64.10;;;;;;4963566;29;20426;-76
2022/05/21 02:49:06;;;;;;;5.30;4.90;;;15.00;64.00;;;;;;4966666;28;20277;-76
2022/05/21 02:51:33;;;;;;;6.03;5.23;;;14.90;64.50;;;;;;4960439;28;20477;-76
2022/05/21 02:54:00;;;;;;;6.88;4.75;;;14.90;65.70;;;;;;4956885;28;20491;-76
2022/05/21 02:56:36;;;;;;;7.10;5.00;;;14.90;65.40;;;;;;4958254;28;20576;-76
2022/05/21 02:59:06;;;;;;;7.43;5.47;;;14.80;65.70;;;;;;4955474;28;20548;-76
2022/05/21 03:02:11;;;;;;;5.80;5.22;;;14.70;66.00;;;;;;4957367;28;20440;-76
2022/05/21 03:04:41;;;;;;;7.40;5.50;;;14.70;65.70;;;;;;4957577;28;20244;-76
2022/05/21 03:07:08;;;;;;;5.90;5.38;;;14.60;65.70;;;;;;4957611;28;20206;-76
2022/05/21 03:12:19;;;;;;;6.45;5.78;;;14.50;65.80;;;;;;4955173;28;20639;-76
2022/05/21 03:14:46;;;;;;;6.28;5.47;;;14.50;64.20;;;;;;4955821;28;20209;-76
2022/05/21 03:17:16;;;;;;;6.80;5.78;;;14.50;64.80;;;;;;4955671;28;20208;-76
2022/05/21 03:19:43;;;;;;;6.10;5.60;;;14.40;64.90;;;;;;4959778;28;20210;-76
2022/05/21 03:22:10;;;;;;;6.30;5.80;;;14.40;65.40;;;;;;4957198;28;20666;-76
2022/05/21 03:24:37;;;;;;;6.57;5.97;;;14.40;65.30;;;;;;4959822;28;20205;-76
2022/05/21 03:27:07;;;;;;;6.53;5.93;;;14.30;66.00;;;;;;4957170;28;20210;-76
2022/05/21 03:29:34;;;;;;;6.20;5.60;;;14.40;66.20;;;;;;4955430;28;20241;-76
2022/05/21 03:32:01;;;;;;;10.02;6.20;;;14.40;66.20;;;;;;4955261;28;20237;-76
2022/05/21 03:34:29;;;;;;;6.97;5.53;;;14.40;65.90;;;;;;4955118;28;20236;-76
2022/05/21 03:36:59;;;;;;;6.77;6.17;;;14.40;66.60;;;;;;4955786;28;20210;-75
2022/05/21 03:39:26;;;;;;;5.80;5.30;;;14.40;68.40;;;;;;4955137;28;20434;-76
2022/05/21 03:41:53;;;;;;;8.63;5.90;;;14.40;68.90;;;;;;4955014;28;20205;-77
2022/05/21 03:44:23;;;;;;;6.68;6.07;;;14.30;69.80;;;;;;4955644;28;20538;-76
2022/05/21 03:47:17;;;;;;;8.00;6.03;;;14.40;71.60;;;;;;4955347;28;20685;-76
2022/05/21 03:49:46;;;;;;;7.93;6.68;;;14.40;73.00;;;;;;4956048;28;20625;-75
2022/05/21 03:52:13;;;;;;;9.02;5.70;;;14.30;73.60;;;;;;4954890;28;20222;-75
2022/05/21 03:54:40;;;;;;;6.97;6.28;;;14.30;75.90;;;;;;4954258;28;20237;-76
2022/05/21 03:57:32;;;;;;;6.63;6.03;;;14.30;75.20;;;;;;4955082;28;20213;-75
2022/05/21 03:59:59;;;;;;;9.93;6.30;;;14.40;75.60;;;;;;4954946;28;20202;-76
2022/05/21 04:02:26;;;;;;;7.32;6.72;;;14.40;75.20;;;;;;4954419;28;20830;-76
2022/05/21 04:05:28;;;;;;;6.82;6.20;;;14.40;74.70;;;;;;4955016;28;20205;-76
2022/05/21 04:07:54;;;;;;;7.90;7.00;;;14.30;74.80;;;;;;4953855;28;20221;-76
2022/05/21 04:10:21;;;;;;;7.45;6.75;;;14.40;75.10;;;;;;4954102;28;20462;-76
2022/05/21 04:12:48;;;;;;;7.70;6.17;;;14.40;75.10;;;;;;4954098;28;20233;-76
2022/05/21 04:15:15;;;;;;;8.20;7.40;;;14.40;75.20;;;;;;4954620;28;20468;-76
2022/05/21 04:17:42;;;;;;;7.80;7.07;;;14.40;75.00;;;;;;4954116;28;20545;-76
2022/05/21 04:20:15;;;;;;;7.35;6.65;;;14.40;74.80;;;;;;4956887;28;20205;-76
2022/05/21 04:22:42;;;;;;;8.00;7.30;;;14.40;74.40;;;;;;4957927;29;20304;-76
2022/05/21 04:25:12;;;;;;;6.95;5.88;;;14.50;73.40;;;;;;4957918;28;20296;-76
2022/05/21 04:27:40;;;;;;;8.05;7.38;;;14.60;72.10;;;;;;4957998;28;20212;-76
2022/05/21 04:30:10;;;;;;;7.70;6.80;;;14.60;71.80;;;;;;4957682;28;20217;-75
2022/05/21 04:32:37;;;;;;;7.20;6.38;;;14.60;71.80;;;;;;4958350;28;20256;-76
2022/05/21 04:35:05;;;;;;;7.40;6.70;;;14.60;71.80;;;;;;4958145;28;20213;-76
2022/05/21 04:37:36;;;;;;;9.32;7.07;;;14.70;71.80;;;;;;4958971;28;20492;-76
2022/05/21 04:40:04;;;;;;;10.50;6.93;;;14.70;71.30;;;;;;4971509;28;20244;-76
2022/05/21 04:42:30;;;;;;;9.23;6.03;;;14.70;70.20;;;;;;4969801;28;20249;-76
2022/05/21 04:44:57;;;;;;;7.80;5.83;;;14.70;69.40;;;;;;4961122;29;20245;-76
2022/05/21 04:47:24;;;;;;;6.85;5.78;;;14.80;68.20;;;;;;4953705;29;20468;-76
2022/05/21 04:49:51;;;;;;;6.00;5.40;;;14.90;67.50;;;;;;4964878;29;20208;-76
2022/05/21 04:52:18;;;;;;;6.00;5.40;;;15.00;66.60;;;;;;4957921;28;20979;-76
2022/05/21 04:54:46;;;;;;;6.10;4.60;;;15.30;66.30;;;;;;4958877;28;20556;-76
2022/05/21 04:57:13;;;;;;;6.33;4.70;;;16.00;61.40;;;;;;4959126;29;20442;-75
2022/05/21 04:59:40;;;;;;;4.53;4.13;;;16.80;56.20;;;;;;4958480;29;20472;-75
2022/05/21 05:02:06;;;;;;;4.87;3.70;;;17.50;52.50;;;;;;4959805;29;20467;-75
2022/05/21 05:04:33;;;;;;;4.37;3.97;;;18.10;50.10;;;;;;4959679;28;20495;-76
2022/05/21 05:07:06;;;;;;;3.83;3.53;;;18.80;47.70;;;;;;4960824;28;20514;-75
2022/05/21 05:09:39;;;;;;;3.30;3.00;;;19.20;46.20;;;;;;4960902;29;20833;-75
2022/05/21 05:12:08;;;;;;;3.93;3.03;;;19.60;44.90;;;;;;4957790;28;20468;-76
2022/05/21 05:14:35;;;;;;;3.63;3.33;;;19.90;43.80;;;;;;4977917;23;20476;-73
2022/05/21 05:17:03;;;;;;;5.20;3.60;;;20.10;43.20;;;;;;4956827;28;20875;-72
2022/05/21 05:19:31;;;;;;;3.93;3.20;;;20.10;42.10;;;;;;4956539;28;20486;-72
2022/05/21 05:21:58;;;;;;;5.10;3.60;;;19.90;42.60;;;;;;4957272;28;20457;-71
2022/05/21 05:24:25;;;;;;;5.03;3.50;;;20.00;42.20;;;;;;4956734;28;20486;-73
2022/05/21 05:26:52;;;;;;;4.53;3.57;;;20.00;41.80;;;;;;4956964;28;20523;-74
2022/05/21 05:29:20;;;;;;;4.17;3.27;;;19.80;41.50;;;;;;4956317;29;20472;-72
2022/05/21 05:31:47;;;;;;;3.30;3.00;;;19.90;41.90;;;;;;4955046;29;20486;-73
2022/05/21 05:34:14;;;;;;;4.07;2.90;;;20.30;40.30;;;;;;4956706;28;20524;-73
2022/05/21 05:36:41;;;;;;;3.60;2.43;;;20.40;39.20;;;;;;4957044;28;20530;-73
2022/05/21 05:39:08;;;;;;;4.40;3.10;;;20.60;39.40;;;;;;4956836;29;20854;-73
2022/05/21 05:41:37;;;;;;;2.90;2.70;;;20.50;39.30;;;;;;4956570;28;20456;-73
2022/05/21 05:44:05;;;;;;;5.43;2.70;;;20.10;39.40;;;;;;4958488;28;20489;-75
2022/05/21 05:46:33;;;;;;;2.90;2.30;;;19.60;40.00;;;;;;4960084;28;20489;-74
2022/05/21 05:49:00;;;;;;;4.37;2.67;;;19.50;39.80;;;;;;4958925;28;20510;-72
2022/05/21 05:51:27;;;;;;;3.77;2.77;;;19.80;39.50;;;;;;4959214;28;20805;-75
2022/05/21 05:53:54;;;;;;;3.53;2.93;;;19.90;38.80;;;;;;4959881;28;20478;-74
2022/05/21 05:56:22;;;;;;;4.03;3.10;;;20.00;38.80;;;;;;4959177;28;20467;-74
2022/05/21 06:01:34;;;;;;;5.53;2.50;;;19.90;38.80;;;;;;4957870;29;20500;-73
2022/05/21 06:04:01;;;;;;;3.27;2.20;;;20.30;39.10;;;;;;4957467;28;21023;-73
2022/05/21 06:06:30;;;;;;;4.03;2.73;;;20.90;37.10;;;;;;4956565;28;20500;-73
2022/05/21 06:08:58;;;;;;;2.50;2.30;;;20.70;36.40;;;;;;4957117;28;20438;-73
2022/05/21 06:11:25;;;;;;;2.50;2.30;;;20.70;37.40;;;;;;4956833;28;20433;-74
2022/05/21 06:13:51;;;;;;;2.37;2.27;;;20.90;39.60;;;;;;4956124;28;20870;-73
2022/05/21 06:16:18;;;;;;;2.63;2.33;;;21.00;35.20;;;;;;4955931;29;20552;-72
2022/05/21 06:18:46;;;;;;;3.53;2.37;;;20.90;36.60;;;;;;4955662;29;20434;-73
2022/05/21 06:21:13;;;;;;;4.17;3.00;;;21.30;35.70;;;;;;4955256;28;20433;-72
2022/05/21 06:23:40;;;;;;;2.60;2.30;;;22.00;34.70;;;;;;4955737;28;20504;-73
2022/05/21 06:26:09;;;;;;;6.23;2.10;;;22.00;34.30;;;;;;4956123;29;20848;-74
2022/05/21 06:28:35;;;;;;;3.80;2.30;;;22.50;33.00;;;;;;4955164;28;20470;-73
2022/05/21 06:31:03;;;;;;;3.60;2.27;;;22.60;32.80;;;;;;4955141;28;20428;-73
2022/05/21 06:33:31;;;;;;;2.90;1.87;;;22.80;31.80;;;;;;4955421;28;20496;-73
2022/05/21 06:36:06;;;;;;;2.10;1.90;;;22.90;31.60;;;;;;4956661;28;20487;-73
2022/05/21 06:38:34;;;;;;;1.97;1.83;;;23.00;31.40;;;;;;4937218;29;20450;-73
2022/05/21 06:41:01;;;;;;;2.53;1.80;;;22.80;31.10;;;;;;4941940;28;20893;-73
2022/05/21 06:43:28;;;;;;;3.13;1.90;;;21.50;33.80;;;;;;4956757;28;20458;-73
2022/05/21 06:45:54;;;;;;;3.93;2.20;;;20.90;34.30;;;;;;4955971;28;20567;-72
2022/05/21 06:48:21;;;;;;;5.00;1.80;;;20.50;35.30;;;;;;4956576;28;20460;-73
2022/05/21 06:50:48;;;;;;;2.70;1.90;;;20.00;36.30;;;;;;4956425;28;20427;-73
2022/05/21 06:53:17;;;;;;;2.70;1.73;;;19.70;37.10;;;;;;4956036;28;20837;-73
2022/05/21 06:55:44;;;;;;;2.97;1.57;;;19.80;37.90;;;;;;4963906;28;21028;-73
2022/05/21 06:58:11;;;;;;;2.63;1.83;;;19.80;38.40;;;;;;4972006;28;20458;-74
2022/05/21 07:00:38;;;;;;;2.30;1.67;;;19.60;37.70;;;;;;4970410;28;21013;-72
2022/05/21 07:03:05;;;;;;;3.20;1.80;;;19.50;37.20;;;;;;4974420;28;20435;-72
2022/05/21 07:08:20;;;;;;;7.03;1.47;;;19.30;38.10;;;;;;4969593;29;20793;-73
2022/05/21 07:10:48;;;;;;;1.77;1.60;;;19.50;38.30;;;;;;4965870;28;20863;-74
2022/05/21 07:13:16;;;;;;;2.50;1.60;;;19.40;38.20;;;;;;4966126;28;20500;-73
2022/05/21 07:15:43;;;;;;;2.17;1.80;;;19.60;37.90;;;;;;4963468;28;20787;-73
2022/05/21 07:18:12;;;;;;;1.53;1.30;;;19.80;37.50;;;;;;4957245;28;20441;-74
2022/05/21 07:20:39;;;;;;;3.27;1.17;;;19.90;37.00;;;;;;4954782;29;20959;-74
2022/05/21 07:23:06;;;;;;;2.83;1.83;;;20.10;36.90;;;;;;4954580;28;20477;-74
2022/05/21 07:25:35;;;;;;;5.00;1.90;;;20.00;36.90;;;;;;4954852;29;20531;-74
2022/05/21 07:28:02;;;;;;;2.07;1.47;;;19.80;36.90;;;;;;4959342;28;20468;-73
2022/05/21 07:30:30;;;;;;;3.83;1.40;;;19.70;36.90;;;;;;4956369;29;20482;-76
2022/05/21 07:32:58;;;;;;;2.13;1.30;;;19.70;35.40;;;;;;4955941;28;20475;-77
2022/05/21 07:35:27;;;;;;;1.70;1.10;;;19.40;34.70;;;;;;4969322;28;20942;-77
2022/05/21 07:37:54;;;;;;;2.57;1.33;;;19.30;33.60;;;;;;4975890;28;20425;-78
2022/05/21 07:40:24;;;;;;;1.67;1.00;;;19.00;34.80;;;;;;4975187;28;20512;-76
2022/05/21 07:42:53;;;;;;;3.83;1.60;;;19.00;35.50;;;;;;4971356;28;20452;-78
2022/05/21 07:45:21;;;;;;;3.00;1.40;;;19.50;34.40;;;;;;4968193;29;20460;-78
2022/05/21 07:47:49;;;;;;;2.87;1.00;;;19.90;33.30;;;;;;4966166;28;20461;-79
2022/05/21 07:50:25;;;;;;;1.17;0.97;;;19.10;32.80;;;;;;4967214;28;20432;-80
2022/05/21 07:52:55;;;;;;;2.57;1.20;;;18.80;35.10;;;;;;4960900;28;20496;-78
2022/05/21 07:55:22;;;;;;;1.90;1.43;;;18.90;35.60;;;;;;4965737;28;20432;-77
2022/05/21 07:57:49;;;;;;;2.93;1.40;;;18.90;35.90;;;;;;4965994;28;20447;-79
2022/05/21 08:00:18;;;;;;;2.77;1.40;;;19.30;36.50;;;;;;4965960;28;20469;-79
2022/05/21 08:02:46;;;;;;;4.47;1.90;;;19.70;34.70;;;;;;4964891;28;20520;-79
2022/05/21 08:05:13;;;;;;;3.40;1.30;;;19.90;34.30;;;;;;4966229;28;20489;-79
2022/05/21 08:07:40;;;;;;;2.17;1.13;;;19.80;34.00;;;;;;4979321;28;20455;-80
2022/05/21 08:10:07;;;;;;;3.10;1.30;;;19.60;34.60;;;;;;4981230;28;20453;-81
2022/05/21 08:12:34;;;;;;;1.93;1.30;;;19.60;34.70;;;;;;4980620;28;20516;-80
2022/05/21 08:15:01;;;;;;;3.83;1.90;;;19.40;35.30;;;;;;4975357;28;20436;-80
2022/05/21 08:17:29;;;;;;;1.40;1.20;;;19.30;35.50;;;;;;4968048;28;20463;-79
2022/05/21 08:19:56;;;;;;;3.20;1.60;;;19.60;35.40;;;;;;4966367;28;20435;-80
2022/05/21 08:27:57;;;;;;;3.40;1.93;;;19.70;35.80;;;;;;4940357;28;20438;-80
2022/05/21 08:30:24;;;;;;;4.40;1.60;;;19.60;34.60;;;;;;4966385;28;20445;-81
2022/05/21 08:32:59;;;;;;;2.83;1.33;;;19.40;35.90;;;;;;4974665;28;20570;-79
2022/05/21 08:35:26;;;;;;;1.70;1.30;;;19.60;36.10;;;;;;4969813;28;20487;-78
2022/05/21 08:37:53;;;;;;;3.63;1.70;;;19.70;35.50;;;;;;4966217;28;20532;-77
2022/05/21 08:40:20;;;;;;;2.00;1.10;;;19.90;35.30;;;;;;4949719;29;20579;-81
2022/05/21 08:42:55;;;;;;;1.77;1.20;;;20.00;34.20;;;;;;4953463;29;20437;-79
2022/05/21 08:45:24;;;;;;;3.03;1.30;;;19.80;34.30;;;;;;4956777;29;20453;-78
2022/05/21 08:47:59;;;;;;;3.07;1.20;;;20.00;33.60;;;;;;4963042;29;20461;-78
2022/05/21 08:50:32;;;;;;;2.73;1.20;;;20.00;34.00;;;;;;4960927;29;20457;-79
2022/05/21 08:53:02;;;;;;;1.90;1.53;;;19.80;34.40;;;;;;4959543;28;20535;-79
2022/05/21 08:55:32;;;;;;;2.50;1.47;;;20.00;33.70;;;;;;4957889;29;20503;-78
2022/05/21 08:58:02;;;;;;;3.03;1.43;;;20.20;33.00;;;;;;4964794;28;20439;-80
2022/05/21 09:00:34;;;;;;;2.40;1.27;;;19.90;33.10;;;;;;4956047;28;20466;-80
2022/05/21 09:03:07;;;;;;;1.70;1.17;;;19.70;34.20;;;;;;4946410;29;20506;-80
2022/05/21 09:05:33;;;;;;;1.67;1.17;;;20.00;33.20;;;;;;4954368;29;20946;-78
2022/05/21 09:08:12;;;;;;;1.60;1.00;;;20.20;32.70;;;;;;4953238;28;20517;-79
2022/05/21 09:10:50;;;;;;;7.07;1.50;;;20.50;32.90;;;;;;4943424;29;20421;-78
2022/05/21 09:13:20;;;;;;;3.83;1.30;;;20.70;32.10;;;;;;4949615;29;20472;-77
2022/05/21 09:18:36;;;;;;;3.17;1.30;;;20.80;30.60;;;;;;4962547;28;20455;-79
2022/05/21 09:21:09;;;;;;;2.70;1.10;;;20.70;32.10;;;;;;4961042;28;20468;-79
2022/05/21 09:23:55;;;;;;;3.03;1.10;;;20.80;32.80;;;;;;4957810;28;20551;-78
2022/05/21 09:26:24;;;;;;;3.53;1.17;;;21.20;30.90;;;;;;4945539;29;20468;-77
2022/05/21 09:28:51;;;;;;;4.63;1.17;;;21.20;30.80;;;;;;4958469;28;20523;-77
2022/05/21 09:31:31;;;;;;;2.00;0.90;;;21.30;29.90;;;;;;4960349;28;20442;-77
2022/05/21 09:34:13;;;;;;;2.00;1.20;;;20.90;30.70;;;;;;4961107;28;20485;-78
2022/05/21 09:36:40;;;;;;;4.13;1.10;;;20.70;31.80;;;;;;4961396;28;20469;-78
2022/05/21 09:39:07;;;;;;;2.30;1.23;;;20.80;31.80;;;;;;4960364;28;20461;-78
2022/05/21 09:41:36;;;;;;;4.60;0.93;;;21.30;31.30;;;;;;4960379;28;20487;-76
2022/05/21 09:47:12;;;;;;;1.53;1.20;;;21.50;30.00;;;;;;4964345;29;20467;-79
2022/05/21 09:49:41;;;;;;;1.53;1.00;;;21.40;29.90;;;;;;4967328;28;20420;-78
2022/05/21 09:52:10;;;;;;;2.97;1.23;;;21.40;29.90;;;;;;4967843;28;20466;-78
2022/05/21 09:54:40;;;;;;;2.03;1.30;;;21.60;30.00;;;;;;4964408;28;21001;-78
2022/05/21 09:57:23;;;;;;;1.27;0.90;;;22.10;29.50;;;;;;4952268;28;20509;-78
2022/05/21 10:00:02;;;;;;;4.30;1.20;;;21.80;29.40;;;;;;4961231;29;20445;-78
2022/05/21 10:02:39;;;;;;;5.50;1.40;;;21.40;29.90;;;;;;4963025;28;20457;-77
2022/05/21 10:05:12;;;;;;;1.77;1.10;;;21.60;30.70;;;;;;4962982;28;20458;-77
2022/05/21 10:11:03;;;;;;;1.20;1.10;;;22.10;28.70;;;;;;4908284;29;20448;-78
2022/05/21 10:13:38;;;;;;;3.27;1.50;;;22.10;29.20;;;;;;4956881;28;20524;-78
2022/05/21 10:16:18;;;;;;;3.10;1.20;;;21.80;30.10;;;;;;4964433;28;20505;-78
2022/05/21 10:18:51;;;;;;;4.47;1.17;;;22.10;30.20;;;;;;4965783;28;20443;-80
2022/05/21 10:21:29;;;;;;;2.57;1.60;;;22.30;28.50;;;;;;4967622;28;20462;-79
2022/05/21 10:24:03;;;;;;;3.33;1.50;;;22.30;28.50;;;;;;4971409;28;20541;-78
2022/05/21 10:26:44;;;;;;;1.10;0.97;;;22.50;28.40;;;;;;4970917;28;20423;-78
2022/05/21 10:29:43;;;;;;;3.33;1.10;;;22.50;27.80;;;;;;4970950;28;20833;-78
2022/05/21 10:32:23;;;;;;;2.37;1.23;;;22.60;27.90;;;;;;4964329;28;20452;-78
2022/05/21 10:35:01;;;;;;;2.23;1.33;;;22.60;28.00;;;;;;4965292;28;20527;-78
2022/05/21 10:37:46;;;;;;;4.53;1.30;;;22.70;27.20;;;;;;4975811;28;20456;-79
2022/05/21 10:40:26;;;;;;;2.63;1.17;;;22.00;27.80;;;;;;4978686;28;20490;-78
2022/05/21 10:43:09;;;;;;;5.90;1.30;;;22.00;27.20;;;;;;4978528;28;20581;-78
2022/05/21 10:45:42;;;;;;;3.70;1.30;;;22.30;27.20;;;;;;4961404;28;20474;-79
2022/05/21 10:48:55;;;;;;;4.30;1.67;;;21.90;28.00;;;;;;4978619;28;20445;-79
2022/05/21 10:51:29;;;;;;;2.20;0.90;;;21.80;28.20;;;;;;4971971;28;20449;-79
2022/05/21 10:54:27;;;;;;;3.37;1.10;;;21.70;27.80;;;;;;4969847;28;20498;-79
2022/05/21 10:57:08;;;;;;;1.70;1.30;;;22.00;27.60;;;;;;4948250;28;20476;-82
2022/05/21 10:59:49;;;;;;;2.90;0.93;;;22.60;27.50;;;;;;4967782;28;20457;-79
2022/05/21 11:02:33;;;;;;;3.03;1.10;;;23.20;27.00;;;;;;4963919;28;20446;-78
2022/05/21 11:05:31;;;;;;;2.10;1.00;;;23.20;26.20;;;;;;4962547;28;20440;-79
2022/05/21 11:08:06;;;;;;;2.00;1.00;;;23.30;26.40;;;;;;4964959;28;20457;-79
2022/05/21 11:10:40;;;;;;;1.20;1.00;;;23.30;25.70;;;;;;4965018;28;20388;-78
2022/05/21 11:13:11;;;;;;;5.20;1.67;;;23.30;25.60;;;;;;4984596;23;20544;-78
2022/05/21 11:15:44;;;;;;;1.40;0.90;;;23.40;26.00;;;;;;4972786;28;20451;-76
2022/05/21 11:18:18;;;;;;;2.10;1.20;;;23.40;25.70;;;;;;4980478;28;20445;-76
2022/05/21 11:20:50;;;;;;;2.70;1.03;;;23.10;25.80;;;;;;4981230;28;20427;-76
2022/05/21 11:23:22;;;;;;;2.50;1.30;;;22.60;26.50;;;;;;4977636;28;20501;-75
2022/05/21 11:25:56;;;;;;;1.73;1.27;;;22.80;26.50;;;;;;4959001;28;20453;-77
2022/05/21 11:28:35;;;;;;;3.80;1.37;;;23.10;26.60;;;;;;4958249;28;20453;-77
2022/05/21 11:31:09;;;;;;;2.60;1.63;;;23.50;25.60;;;;;;4957422;28;20495;-76
2022/05/21 11:39:21;;;;;;;4.40;1.23;;;23.10;26.10;;;;;;4949416;28;20995;-76
2022/05/21 11:42:09;;;;;;;2.13;1.30;;;22.80;26.60;;;;;;4954700;28;20954;-77
2022/05/21 11:44:58;;;;;;;1.13;0.90;;;22.90;26.10;;;;;;4955065;28;20456;-77
2022/05/21 11:47:41;;;;;;;1.00;0.90;;;22.90;26.60;;;;;;4955287;28;20464;-76
2022/05/21 11:50:17;;;;;;;1.00;0.90;;;23.30;25.60;;;;;;4957492;28;20456;-78
2022/05/21 11:52:58;;;;;;;1.37;1.20;;;22.90;25.80;;;;;;4958585;28;20510;-77
2022/05/21 11:55:27;;;;;;;3.67;1.03;;;22.70;26.40;;;;;;4963627;28;20518;-77
2022/05/21 11:57:58;;;;;;;1.10;1.00;;;23.20;26.00;;;;;;4960904;28;20446;-76
2022/05/21 12:00:50;;;;;;;2.07;1.50;;;23.30;25.10;;;;;;4965081;28;20461;-77
2022/05/21 12:03:22;;;;;;;1.60;1.27;;;23.40;25.70;;;;;;4963293;28;20552;-77
2022/05/21 12:06:18;;;;;;;1.63;1.10;;;23.10;25.70;;;;;;4957474;28;20428;-76
2022/05/21 12:08:50;;;;;;;2.00;1.00;;;23.20;25.50;;;;;;4955042;28;20916;-76
2022/05/21 12:11:53;;;;;;;2.60;1.20;;;23.30;25.30;;;;;;4954367;28;20446;-76
2022/05/21 12:14:28;;;;;;;2.67;1.07;;;23.60;25.00;;;;;;4947234;29;20468;-77
2022/05/21 12:16:58;;;;;;;2.60;0.90;;;23.50;24.90;;;;;;4954432;28;20494;-76
2022/05/21 12:20:06;;;;;;;1.43;1.20;;;23.40;25.00;;;;;;4953745;28;20536;-76
2022/05/21 12:22:45;;;;;;;2.80;1.03;;;23.70;23.50;;;;;;4935649;29;20462;-77
2022/05/21 12:25:59;;;;;;;2.50;1.50;;;23.50;23.90;;;;;;4935040;29;20528;-76
2022/05/21 12:28:34;;;;;;;2.80;1.17;;;23.20;24.90;;;;;;4935804;29;20440;-76
2022/05/21 12:31:07;;;;;;;7.53;1.23;;;23.30;25.00;;;;;;4940435;29;20470;-77
2022/05/21 12:33:40;;;;;;;2.33;1.07;;;23.10;24.40;;;;;;4954138;28;20466;-77
2022/05/21 12:36:23;;;;;;;1.67;1.10;;;23.00;25.30;;;;;;4955870;28;20449;-77
2022/05/21 12:38:52;;;;;;;3.17;1.20;;;23.20;25.00;;;;;;4954079;29;20545;-77
2022/05/21 12:41:24;;;;;;;1.47;0.90;;;23.20;24.60;;;;;;4971780;28;20459;-76
2022/05/21 12:43:52;;;;;;;0.97;0.90;;;23.30;24.70;;;;;;4976184;28;20514;-77
2022/05/21 12:46:24;;;;;;;1.83;1.00;;;23.30;24.70;;;;;;4969352;28;20467;-76
2022/05/21 12:48:52;;;;;;;2.23;1.10;;;23.10;25.30;;;;;;4960056;28;20529;-77
2022/05/21 12:51:30;;;;;;;4.60;0.90;;;23.00;24.80;;;;;;4970002;28;20430;-75
2022/05/21 12:57:26;;;;;;;1.27;1.00;;;23.30;24.30;;;;;;4943845;29;20456;-79
2022/05/21 13:00:04;;;;;;;1.33;1.00;;;23.20;24.60;;;;;;4946400;29;20454;-80
2022/05/21 13:02:40;;;;;;;2.53;1.03;;;23.60;23.80;;;;;;4944751;29;20901;-80
2022/05/21 13:05:08;;;;;;;1.60;1.03;;;23.60;23.90;;;;;;4936129;29;20447;-79
2022/05/21 13:07:39;;;;;;;1.53;0.80;;;23.80;24.00;;;;;;4947515;29;20429;-79
2022/05/21 13:10:17;;;;;;;1.50;1.00;;;24.00;23.60;;;;;;4950035;29;20478;-79
2022/05/21 13:12:47;;;;;;;1.00;0.80;;;23.90;23.50;;;;;;4944380;29;20934;-80
2022/05/21 13:15:19;;;;;;;3.73;0.90;;;23.70;23.40;;;;;;4940374;29;20492;-77
2022/05/21 13:17:58;;;;;;;2.30;0.90;;;23.70;23.40;;;;;;4940127;29;20494;-80
2022/05/21 13:20:31;;;;;;;3.60;1.20;;;23.30;23.60;;;;;;4940380;29;20527;-78
2022/05/21 13:23:12;;;;;;;1.90;1.07;;;23.40;24.40;;;;;;4941011;29;20494;-80
2022/05/21 13:25:40;;;;;;;1.07;0.97;;;23.50;23.20;;;;;;4940708;29;20874;-80
2022/05/21 13:28:15;;;;;;;1.53;0.93;;;23.80;23.40;;;;;;4940368;29;20460;-80
2022/05/21 13:30:47;;;;;;;1.17;0.93;;;24.10;23.60;;;;;;4939182;29;20517;-78
2022/05/21 13:33:32;;;;;;;1.83;1.27;;;24.00;22.80;;;;;;4946853;29;20436;-79
2022/05/21 13:36:01;;;;;;;3.90;1.10;;;23.70;23.40;;;;;;4941873;29;20507;-79
2022/05/21 13:38:33;;;;;;;2.17;1.07;;;23.40;23.30;;;;;;4938529;29;20435;-79
2022/05/21 13:41:05;;;;;;;2.20;0.93;;;23.40;24.30;;;;;;4932550;29;20461;-79
2022/05/21 13:43:38;;;;;;;3.20;1.17;;;23.80;24.00;;;;;;4942354;29;20446;-79
2022/05/21 13:46:04;;;;;;;2.53;1.07;;;24.00;23.60;;;;;;4941981;29;20553;-80
2022/05/21 13:48:40;;;;;;;3.33;0.97;;;23.70;23.40;;;;;;4942210;29;20453;-79